Time;durP1;ratioP1;P1;durP2;ratioP2;P2;SDS_P1;SDS_P2;PMS_P1;PMS_P2;Temp;Humidity;BMP_temperature;BMP_pressure;BME280_temperature;BME280_humidity;BME280_pressure;Samples;Min_cycle;Max_cycle;Signal;HPM_P1;HPM_P2
2024/01/22 00:00:41;;;;;;;;;;;21.90;31.80;;;;;;5113885;28;19923;-71
2024/01/22 00:03:07;;;;;;;;;;;21.90;31.70;;;;;;5095806;28;19920;-71
2024/01/22 00:05:33;;;;;;;;;;;21.90;31.70;;;;;;5095904;28;19966;-72
2024/01/22 00:07:58;;;;;;;;;;;21.90;31.60;;;;;;5095631;28;19927;-72
2024/01/22 00:10:24;;;;;;;;;;;21.90;31.80;;;;;;5095574;28;19927;-72
2024/01/22 00:12:49;;;;;;;;;;;21.90;31.80;;;;;;5095894;28;19920;-72
2024/01/22 00:15:15;;;;;;;;;;;21.80;31.80;;;;;;5113709;28;19920;-72
2024/01/22 00:17:40;;;;;;;;;;;21.80;31.90;;;;;;5095740;28;19928;-73
2024/01/22 00:20:09;;;;;;;;;;;21.70;31.90;;;;;;5095115;28;19924;-73
2024/01/22 00:22:35;;;;;;;;;;;21.70;32.00;;;;;;5095490;28;20283;-71
2024/01/22 00:25:00;;;;;;;;;;;21.60;32.00;;;;;;5095511;28;19930;-71
2024/01/22 00:27:26;;;;;;;;;;;21.60;32.10;;;;;;5095285;28;20397;-71
2024/01/22 00:29:51;;;;;;;;;;;21.60;32.20;;;;;;5094783;28;19920;-72
2024/01/22 00:32:17;;;;;;;;;;;21.60;32.30;;;;;;5095058;28;19989;-72
2024/01/22 00:34:42;;;;;;;;;;;21.60;32.30;;;;;;5113505;28;20014;-72
2024/01/22 00:37:08;;;;;;;;;;;21.50;32.30;;;;;;5095146;28;19920;-71
2024/01/22 00:39:33;;;;;;;;;;;21.50;32.30;;;;;;5113281;28;19924;-74
2024/01/22 00:41:59;;;;;;;;;;;21.50;32.30;;;;;;5095437;28;19919;-71
2024/01/22 00:44:24;;;;;;;;;;;21.50;32.40;;;;;;5095017;28;19984;-72
2024/01/22 00:46:50;;;;;;;;;;;21.50;32.30;;;;;;5113141;28;20014;-71
2024/01/22 00:49:15;;;;;;;;;;;21.50;32.40;;;;;;5095209;28;19931;-71
2024/01/22 00:51:41;;;;;;;;;;;21.50;32.40;;;;;;5113291;28;19920;-71
2024/01/22 00:54:09;;;;;;;;;;;21.50;32.40;;;;;;5095096;28;20292;-71
2024/01/22 00:56:35;;;;;;;;;;;21.50;32.40;;;;;;5094863;28;19920;-71
2024/01/22 00:59:00;;;;;;;;;;;21.60;32.50;;;;;;5094753;28;19923;-71
2024/01/22 01:01:26;;;;;;;;;;;21.60;32.40;;;;;;5095083;28;19919;-72
2024/01/22 01:03:51;;;;;;;;;;;21.60;32.50;;;;;;5095077;28;19920;-69
2024/01/22 01:06:17;;;;;;;;;;;21.60;32.50;;;;;;5094592;28;20397;-69
2024/01/22 01:08:42;;;;;;;;;;;21.60;32.50;;;;;;5094942;28;19926;-70
2024/01/22 01:11:08;;;;;;;;;;;21.60;32.50;;;;;;5112953;28;19927;-70
2024/01/22 01:13:33;;;;;;;;;;;21.60;32.50;;;;;;5094692;28;20440;-69
2024/01/22 01:15:59;;;;;;;;;;;21.60;32.50;;;;;;5112902;28;19920;-69
2024/01/22 01:18:24;;;;;;;;;;;21.50;32.50;;;;;;5094802;28;20298;-71
2024/01/22 01:20:50;;;;;;;;;;;21.60;32.70;;;;;;5094298;28;19928;-69
2024/01/22 01:23:15;;;;;;;;;;;21.40;32.70;;;;;;5094465;28;20193;-69
2024/01/22 01:25:41;;;;;;;;;;;21.40;32.80;;;;;;5112845;28;19934;-69
2024/01/22 01:28:06;;;;;;;;;;;21.40;32.80;;;;;;5112694;28;19920;-68
2024/01/22 01:30:32;;;;;;;;;;;21.40;32.80;;;;;;5094497;28;19919;-69
2024/01/22 01:33:00;;;;;;;;;;;21.50;32.90;;;;;;5112566;28;19920;-69
2024/01/22 01:35:32;;;;;;;;;;;21.60;32.80;;;;;;5077949;28;19920;-69
2024/01/22 01:37:57;;;;;;;;;;;21.60;32.80;;;;;;5094583;28;20313;-69
2024/01/22 01:40:23;;;;;;;;;;;21.60;32.70;;;;;;5094420;28;19923;-71
2024/01/22 01:42:49;;;;;;;;;;;21.60;32.70;;;;;;5098717;28;19927;-69
2024/01/22 01:45:15;;;;;;;;;;;21.60;32.70;;;;;;5098425;28;19920;-69
2024/01/22 01:47:43;;;;;;;;;;;21.70;32.80;;;;;;5116586;28;20061;-69
2024/01/22 01:50:09;;;;;;;;;;;21.70;32.70;;;;;;5098444;28;19971;-69
2024/01/22 01:52:35;;;;;;;;;;;21.70;32.70;;;;;;5098378;28;19955;-70
2024/01/22 01:55:02;;;;;;;;;;;21.70;32.70;;;;;;5098463;28;19976;-69
2024/01/22 01:57:27;;;;;;;;;;;21.70;32.80;;;;;;5098209;28;19920;-70
2024/01/22 01:59:53;;;;;;;;;;;21.70;32.70;;;;;;5098003;28;19939;-70
2024/01/22 02:02:20;;;;;;;;;;;21.70;32.80;;;;;;5098404;28;19920;-71
2024/01/22 02:04:45;;;;;;;;;;;21.70;32.80;;;;;;5116199;28;19920;-69
2024/01/22 02:07:11;;;;;;;;;;;21.70;32.80;;;;;;5098237;28;20370;-69
2024/01/22 02:09:45;;;;;;;;;;;21.70;32.80;;;;;;5098197;28;19920;-69
2024/01/22 02:12:10;;;;;;;;;;;21.70;32.80;;;;;;5097966;28;20436;-69
2024/01/22 02:14:36;;;;;;;;;;;21.70;32.80;;;;;;5098403;28;19920;-71
2024/01/22 02:17:01;;;;;;;;;;;21.70;32.80;;;;;;5097862;28;19919;-71
2024/01/22 02:19:27;;;;;;;;;;;21.70;32.80;;;;;;5097491;28;19928;-70
2024/01/22 02:21:52;;;;;;;;;;;21.70;32.90;;;;;;5097825;28;19992;-69
2024/01/22 02:24:18;;;;;;;;;;;21.70;32.80;;;;;;5097876;28;20014;-69
2024/01/22 02:26:43;;;;;;;;;;;21.70;32.90;;;;;;5097828;28;20291;-70
2024/01/22 02:29:09;;;;;;;;;;;21.70;33.00;;;;;;5097533;28;19935;-69
2024/01/22 02:31:34;;;;;;;;;;;21.70;32.90;;;;;;5097546;28;19926;-69
2024/01/22 02:34:00;;;;;;;;;;;21.70;33.00;;;;;;5097664;28;20010;-69
2024/01/22 02:36:25;;;;;;;;;;;21.70;33.00;;;;;;5097438;28;19931;-69
2024/01/22 02:38:51;;;;;;;;;;;21.70;33.00;;;;;;5097320;28;19920;-69
2024/01/22 02:41:16;;;;;;;;;;;21.70;33.00;;;;;;5097330;28;19924;-70
2024/01/22 02:43:42;;;;;;;;;;;21.70;33.00;;;;;;5097201;28;19979;-69
2024/01/22 02:46:11;;;;;;;;;;;21.70;33.00;;;;;;5097578;28;19926;-69
2024/01/22 02:48:36;;;;;;;;;;;21.70;33.10;;;;;;5097481;28;19955;-69
2024/01/22 02:51:07;;;;;;;;;;;21.70;33.10;;;;;;5097109;28;19962;-69
2024/01/22 02:53:32;;;;;;;;;;;21.70;33.00;;;;;;5115034;28;19941;-69
2024/01/22 02:55:58;;;;;;;;;;;21.70;33.10;;;;;;5096977;28;20383;-70
2024/01/22 02:58:26;;;;;;;;;;;21.70;33.10;;;;;;5097293;28;19920;-69
2024/01/22 03:00:52;;;;;;;;;;;21.70;33.20;;;;;;5096836;28;19949;-69
2024/01/22 03:03:17;;;;;;;;;;;21.70;33.90;;;;;;5097177;28;19920;-69
2024/01/22 03:05:43;;;;;;;;;;;21.80;33.20;;;;;;5096819;28;20006;-69
2024/01/22 03:08:08;;;;;;;;;;;21.80;33.20;;;;;;5096814;28;19991;-69
2024/01/22 03:10:34;;;;;;;;;;;21.80;33.20;;;;;;5097000;28;19920;-69
2024/01/22 03:12:59;;;;;;;;;;;21.80;33.20;;;;;;5115205;28;20393;-70
2024/01/22 03:15:25;;;;;;;;;;;21.90;33.10;;;;;;5115018;28;19920;-69
2024/01/22 03:17:50;;;;;;;;;;;21.90;33.20;;;;;;5097015;28;20433;-69
2024/01/22 03:20:17;;;;;;;;;;;21.90;33.10;;;;;;5096189;28;19923;-69
2024/01/22 03:22:42;;;;;;;;;;;22.00;33.10;;;;;;5096507;28;19919;-69
2024/01/22 03:25:08;;;;;;;;;;;22.00;33.00;;;;;;5096883;28;19926;-69
2024/01/22 03:27:34;;;;;;;;;;;22.10;33.00;;;;;;5114673;28;20359;-69
2024/01/22 03:29:59;;;;;;;;;;;22.20;32.90;;;;;;5115146;28;20032;-69
2024/01/22 03:32:26;;;;;;;;;;;22.20;32.80;;;;;;5096601;28;19926;-69
2024/01/22 03:34:52;;;;;;;;;;;22.20;33.50;;;;;;5096352;28;20002;-71
2024/01/22 03:37:17;;;;;;;;;;;22.30;32.80;;;;;;5096251;28;20018;-69
2024/01/22 03:39:43;;;;;;;;;;;22.30;32.70;;;;;;5096197;28;19930;-69
2024/01/22 03:42:11;;;;;;;;;;;22.30;32.70;;;;;;5096152;28;20036;-70
2024/01/22 03:44:37;;;;;;;;;;;22.30;32.70;;;;;;5096682;28;19926;-70
2024/01/22 03:47:03;;;;;;;;;;;22.30;32.80;;;;;;5096394;28;19919;-70
2024/01/22 03:49:29;;;;;;;;;;;22.30;32.80;;;;;;5096091;28;20418;-70
2024/01/22 03:51:54;;;;;;;;;;;22.20;32.80;;;;;;5079086;28;19920;-70
2024/01/22 03:54:20;;;;;;;;;;;22.20;32.90;;;;;;5114417;28;20332;-70
2024/01/22 03:56:45;;;;;;;;;;;22.20;32.90;;;;;;5096166;28;19941;-69
2024/01/22 03:59:11;;;;;;;;;;;22.20;33.00;;;;;;5095785;28;19928;-70
2024/01/22 04:01:36;;;;;;;;;;;22.20;33.00;;;;;;5114160;28;19919;-69
2024/01/22 04:04:03;;;;;;;;;;;22.20;33.10;;;;;;5095128;28;19923;-70
2024/01/22 04:06:28;;;;;;;;;;;22.20;33.20;;;;;;5096280;28;19920;-70
2024/01/22 04:08:54;;;;;;;;;;;22.10;33.20;;;;;;5095867;28;19989;-70
2024/01/22 04:11:19;;;;;;;;;;;22.10;33.30;;;;;;5095978;28;19919;-70
2024/01/22 04:13:45;;;;;;;;;;;22.10;33.30;;;;;;5095886;28;20359;-70
2024/01/22 04:16:12;;;;;;;;;;;22.00;33.40;;;;;;5113869;28;19924;-70
2024/01/22 04:18:39;;;;;;;;;;;22.00;33.40;;;;;;5095067;28;19920;-69
2024/01/22 04:21:04;;;;;;;;;;;22.00;33.50;;;;;;5113530;28;19924;-70
2024/01/22 04:23:30;;;;;;;;;;;22.00;33.60;;;;;;5095314;28;19965;-69
2024/01/22 04:25:56;;;;;;;;;;;22.00;33.60;;;;;;5095745;28;19919;-70
2024/01/22 04:28:21;;;;;;;;;;;22.00;33.60;;;;;;5113440;28;19973;-70
2024/01/22 04:30:47;;;;;;;;;;;22.00;33.70;;;;;;5095273;28;19927;-70
2024/01/22 04:33:13;;;;;;;;;;;22.00;33.70;;;;;;5095505;28;19920;-69
2024/01/22 04:35:38;;;;;;;;;;;21.90;33.70;;;;;;5095219;28;19957;-70
2024/01/22 04:38:04;;;;;;;;;;;21.90;33.80;;;;;;5095306;28;19920;-70
2024/01/22 04:40:29;;;;;;;;;;;21.90;33.80;;;;;;5113285;28;20371;-70
2024/01/22 04:42:55;;;;;;;;;;;22.00;33.80;;;;;;5095356;28;19920;-70
2024/01/22 04:45:21;;;;;;;;;;;22.00;33.80;;;;;;5113220;28;19931;-69
2024/01/22 04:47:46;;;;;;;;;;;22.00;33.90;;;;;;5095305;28;20434;-70
2024/01/22 04:50:12;;;;;;;;;;;22.00;33.90;;;;;;5094965;28;20382;-70
2024/01/22 04:52:37;;;;;;;;;;;22.00;33.90;;;;;;5095127;28;19927;-70
2024/01/22 04:55:03;;;;;;;;;;;21.90;33.80;;;;;;5094804;28;19924;-70
2024/01/22 04:57:28;;;;;;;;;;;22.00;33.90;;;;;;5095199;28;19920;-70
2024/01/22 04:59:54;;;;;;;;;;;22.00;33.90;;;;;;5094811;28;19927;-69
2024/01/22 05:02:27;;;;;;;;;;;22.00;33.90;;;;;;5095126;28;19920;-70
2024/01/22 05:04:56;;;;;;;;;;;22.00;33.90;;;;;;5112922;28;19927;-70
2024/01/22 05:07:23;;;;;;;;;;;22.00;33.90;;;;;;5094928;28;19985;-70
2024/01/22 05:09:49;;;;;;;;;;;22.00;33.90;;;;;;5094977;28;19923;-69
2024/01/22 05:12:14;;;;;;;;;;;22.00;34.00;;;;;;5112921;28;20366;-69
2024/01/22 05:14:40;;;;;;;;;;;22.00;34.00;;;;;;5094471;28;19973;-70
2024/01/22 05:17:07;;;;;;;;;;;22.00;34.00;;;;;;5113056;28;19927;-70
2024/01/22 05:19:32;;;;;;;;;;;22.00;34.00;;;;;;5094240;28;20366;-69
2024/01/22 05:21:58;;;;;;;;;;;22.00;34.00;;;;;;5112811;28;20029;-70
2024/01/22 05:24:23;;;;;;;;;;;22.10;34.00;;;;;;5094508;28;19920;-70
2024/01/22 05:26:49;;;;;;;;;;;22.10;34.00;;;;;;5112744;28;19920;-69
2024/01/22 05:29:15;;;;;;;;;;;22.10;34.10;;;;;;5094593;28;20358;-70
2024/01/22 05:31:40;;;;;;;;;;;22.10;34.10;;;;;;5094507;28;19924;-69
2024/01/22 05:34:06;;;;;;;;;;;22.10;34.10;;;;;;5113005;28;19921;-69
2024/01/22 05:36:31;;;;;;;;;;;22.10;34.20;;;;;;5112635;28;19971;-69
2024/01/22 05:38:57;;;;;;;;;;;22.10;34.20;;;;;;5094285;28;19919;-69
2024/01/22 05:41:22;;;;;;;;;;;22.10;34.20;;;;;;5094582;28;19920;-69
2024/01/22 05:43:48;;;;;;;;;;;22.10;34.20;;;;;;5111875;28;20486;-69
2024/01/22 05:46:14;;;;;;;;;;;22.00;34.20;;;;;;5094335;28;19971;-69
2024/01/22 05:48:39;;;;;;;;;;;22.00;34.40;;;;;;5094530;28;20325;-71
2024/01/22 05:51:05;;;;;;;;;;;22.00;34.40;;;;;;5112467;28;20390;-70
2024/01/22 05:53:30;;;;;;;;;;;22.00;34.40;;;;;;5094263;28;19924;-69
2024/01/22 05:55:56;;;;;;;;;;;22.00;34.40;;;;;;5094132;28;19920;-70
2024/01/22 05:58:22;;;;;;;;;;;21.90;34.40;;;;;;5112442;28;20022;-69
2024/01/22 06:00:48;;;;;;;;;;;22.00;34.50;;;;;;5094173;28;19924;-69
2024/01/22 06:03:13;;;;;;;;;;;22.00;34.50;;;;;;5094485;28;20027;-70
2024/01/22 06:05:39;;;;;;;;;;;22.00;34.50;;;;;;5094078;28;19927;-70
2024/01/22 06:08:05;;;;;;;;;;;22.00;34.60;;;;;;5094017;28;19919;-70
2024/01/22 06:10:31;;;;;;;;;;;22.00;34.60;;;;;;5094539;28;19931;-70
2024/01/22 06:12:56;;;;;;;;;;;22.00;34.60;;;;;;5094286;28;19920;-70
2024/01/22 06:15:22;;;;;;;;;;;21.90;34.60;;;;;;5094004;28;19920;-70
2024/01/22 06:17:49;;;;;;;;;;;21.90;34.70;;;;;;5094230;28;19920;-69
2024/01/22 06:20:15;;;;;;;;;;;22.00;34.70;;;;;;5093609;28;19923;-69
2024/01/22 06:22:40;;;;;;;;;;;21.90;34.70;;;;;;5093852;28;20065;-70
2024/01/22 06:25:06;;;;;;;;;;;21.90;34.70;;;;;;5093921;28;19926;-71
2024/01/22 06:27:32;;;;;;;;;;;21.90;34.80;;;;;;5095956;28;19920;-70
2024/01/22 06:29:59;;;;;;;;;;;21.90;34.90;;;;;;5116079;28;20326;-71
2024/01/22 06:32:25;;;;;;;;;;;22.00;34.90;;;;;;5115740;28;19927;-70
2024/01/22 06:34:51;;;;;;;;;;;21.90;34.90;;;;;;5115851;28;19923;-70
2024/01/22 06:37:16;;;;;;;;;;;21.90;34.90;;;;;;5115657;28;20014;-69
2024/01/22 06:39:42;;;;;;;;;;;21.90;35.00;;;;;;5114771;28;20390;-68
2024/01/22 06:42:07;;;;;;;;;;;21.90;35.20;;;;;;5096471;28;20422;-68
2024/01/22 06:44:33;;;;;;;;;;;22.00;36.30;;;;;;5094371;28;20010;-68
2024/01/22 06:46:58;;;;;;;;;;;22.20;37.20;;;;;;5113178;28;19919;-68
2024/01/22 06:49:24;;;;;;;;;;;22.40;37.60;;;;;;5112473;28;19919;-67
2024/01/22 06:51:49;;;;;;;;;;;22.70;37.20;;;;;;5093072;28;19962;-68
2024/01/22 06:54:15;;;;;;;;;;;23.00;37.30;;;;;;5092739;28;19919;-69
2024/01/22 06:56:41;;;;;;;;;;;23.20;36.80;;;;;;5110861;28;20485;-69
2024/01/22 06:59:06;;;;;;;;;;;23.30;36.70;;;;;;5091638;28;19927;-69
2024/01/22 07:01:32;;;;;;;;;;;23.40;36.80;;;;;;5089674;28;19926;-69
2024/01/22 07:03:57;;;;;;;;;;;23.30;37.40;;;;;;5105173;27;19928;-69
2024/01/22 07:06:23;;;;;;;;;;;23.20;37.10;;;;;;5111743;27;20397;-69
2024/01/22 07:08:48;;;;;;;;;;;23.10;37.50;;;;;;5088505;28;20072;-69
2024/01/22 07:11:14;;;;;;;;;;;22.80;38.80;;;;;;5089626;28;20053;-69
2024/01/22 07:13:39;;;;;;;;;;;22.70;38.20;;;;;;5088888;28;20379;-71
2024/01/22 07:16:06;;;;;;;;;;;22.60;38.20;;;;;;5091092;28;19962;-71
2024/01/22 07:18:32;;;;;;;;;;;22.50;38.10;;;;;;5088565;28;19920;-70
2024/01/22 07:20:58;;;;;;;;;;;22.30;38.60;;;;;;5089492;28;20299;-69
2024/01/22 07:23:24;;;;;;;;;;;22.10;38.90;;;;;;5091920;28;20007;-69
2024/01/22 07:25:50;;;;;;;;;;;21.80;39.30;;;;;;5086071;28;20015;-71
2024/01/22 07:28:15;;;;;;;;;;;21.50;39.50;;;;;;5082094;28;19927;-68
2024/01/22 07:30:41;;;;;;;;;;;21.30;41.10;;;;;;5066348;28;19927;-69
2024/01/22 07:33:06;;;;;;;;;;;21.10;41.00;;;;;;5088415;28;20303;-67
2024/01/22 07:35:33;;;;;;;;;;;21.00;41.40;;;;;;5103813;27;19965;-67
2024/01/22 07:37:58;;;;;;;;;;;20.90;41.50;;;;;;5075629;28;20409;-68
2024/01/22 07:40:24;;;;;;;;;;;20.70;41.80;;;;;;5079237;28;19928;-69
2024/01/22 07:42:49;;;;;;;;;;;20.50;42.50;;;;;;5094864;27;19920;-69
2024/01/22 07:45:15;;;;;;;;;;;20.40;43.10;;;;;;5097443;28;19924;-69
2024/01/22 07:47:42;;;;;;;;;;;20.20;43.60;;;;;;5101247;27;20389;-69
2024/01/22 07:50:10;;;;;;;;;;;20.20;44.00;;;;;;5098556;28;19924;-70
2024/01/22 07:52:36;;;;;;;;;;;20.30;44.30;;;;;;5085618;28;19926;-69
2024/01/22 07:55:02;;;;;;;;;;;20.30;43.70;;;;;;5097323;28;19964;-70
2024/01/22 07:57:28;;;;;;;;;;;20.50;44.20;;;;;;5071801;28;20018;-70
2024/01/22 07:59:54;;;;;;;;;;;20.60;44.00;;;;;;5105541;27;19935;-70
2024/01/22 08:02:19;;;;;;;;;;;20.80;43.60;;;;;;5093441;27;20302;-69
2024/01/22 08:04:45;;;;;;;;;;;20.90;43.40;;;;;;5091144;28;19928;-70
2024/01/22 08:07:11;;;;;;;;;;;21.00;43.40;;;;;;5109729;27;20017;-69
2024/01/22 08:09:36;;;;;;;;;;;21.10;42.90;;;;;;5093978;28;20019;-70
2024/01/22 08:12:03;;;;;;;;;;;21.20;42.80;;;;;;5092551;28;19928;-69
2024/01/22 08:14:30;;;;;;;;;;;21.20;43.20;;;;;;5077892;28;19930;-73
2024/01/22 08:16:56;;;;;;;;;;;21.30;42.80;;;;;;5093032;28;19981;-76
2024/01/22 08:19:21;;;;;;;;;;;21.40;42.90;;;;;;5070979;28;20386;-73
2024/01/22 08:21:47;;;;;;;;;;;21.50;42.60;;;;;;5076485;28;19950;-68
2024/01/22 08:24:12;;;;;;;;;;;21.50;42.50;;;;;;5096179;28;20343;-68
2024/01/22 08:26:38;;;;;;;;;;;21.60;42.30;;;;;;5091260;28;20451;-67
2024/01/22 08:29:03;;;;;;;;;;;21.50;42.50;;;;;;5073685;28;19923;-71
2024/01/22 08:31:32;;;;;;;;;;;21.50;42.60;;;;;;5075223;28;19924;-69
2024/01/22 08:33:58;;;;;;;;;;;21.40;42.60;;;;;;5081559;28;19965;-70
2024/01/22 08:36:23;;;;;;;;;;;21.40;42.70;;;;;;5092635;28;20018;-71
2024/01/22 08:38:49;;;;;;;;;;;21.30;42.70;;;;;;5076613;28;19924;-70
2024/01/22 08:41:14;;;;;;;;;;;21.30;42.80;;;;;;5106746;27;20208;-68
2024/01/22 08:43:40;;;;;;;;;;;21.20;42.90;;;;;;5078412;28;19928;-69
2024/01/22 08:46:05;;;;;;;;;;;21.10;42.80;;;;;;5075060;28;19920;-69
2024/01/22 08:48:31;;;;;;;;;;;21.00;43.00;;;;;;5082399;27;19981;-68
2024/01/22 08:50:57;;;;;;;;;;;21.00;43.00;;;;;;5099189;28;19976;-68
2024/01/22 08:53:22;;;;;;;;;;;21.00;43.00;;;;;;5092983;27;20022;-69
2024/01/22 08:55:48;;;;;;;;;;;21.00;43.10;;;;;;5073434;28;20348;-68
2024/01/22 08:58:15;;;;;;;;;;;21.00;43.30;;;;;;5073720;28;20422;-68
2024/01/22 09:00:41;;;;;;;;;;;21.00;43.00;;;;;;5094049;28;19979;-68
2024/01/22 09:03:06;;;;;;;;;;;21.10;42.90;;;;;;5092474;28;19963;-68
2024/01/22 09:05:32;;;;;;;;;;;21.10;42.80;;;;;;5074781;28;19931;-68
2024/01/22 09:07:57;;;;;;;;;;;21.10;42.70;;;;;;5097550;28;19971;-68
2024/01/22 09:10:23;;;;;;;;;;;21.20;42.60;;;;;;5093083;28;19927;-68
2024/01/22 09:12:49;;;;;;;;;;;21.20;42.50;;;;;;5075435;28;20291;-66
2024/01/22 09:15:17;;;;;;;;;;;21.20;42.40;;;;;;5098135;28;20570;-69
2024/01/22 09:17:43;;;;;;;;;;;21.30;43.20;;;;;;5076722;28;20373;-68
2024/01/22 09:20:10;;;;;;;;;;;21.30;42.50;;;;;;5075217;28;19942;-70
2024/01/22 09:22:35;;;;;;;;;;;21.40;43.30;;;;;;5095341;28;19955;-66
2024/01/22 09:25:01;;;;;;;;;;;21.30;43.50;;;;;;5076334;28;19990;-69
2024/01/22 09:27:26;;;;;;;;;;;21.20;43.80;;;;;;5075281;28;19924;-67
2024/01/22 09:29:52;;;;;;;;;;;21.20;43.90;;;;;;5076825;28;19924;-67
2024/01/22 09:32:18;;;;;;;;;;;21.20;44.10;;;;;;5079059;28;19966;-69
2024/01/22 09:34:44;;;;;;;;;;;21.20;44.10;;;;;;5078932;28;20780;-68
2024/01/22 09:37:09;;;;;;;;;;;21.20;44.20;;;;;;5079325;28;19920;-69
2024/01/22 09:39:38;;;;;;;;;;;21.20;44.60;;;;;;5082797;28;20566;-68
2024/01/22 09:42:04;;;;;;;;;;;21.20;44.60;;;;;;5112264;28;19920;-69
2024/01/22 09:44:30;;;;;;;;;;;21.20;44.50;;;;;;5107987;28;19932;-68
2024/01/22 09:46:56;;;;;;;;;;;21.20;44.60;;;;;;5097147;28;19984;-69
2024/01/22 09:49:23;;;;;;;;;;;21.20;44.40;;;;;;5077982;28;20442;-69
2024/01/22 09:51:49;;;;;;;;;;;21.20;44.70;;;;;;5105102;28;19974;-67
2024/01/22 09:54:19;;;;;;;;;;;21.20;44.80;;;;;;5070944;28;20299;-67
2024/01/22 09:56:48;;;;;;;;;;;21.30;44.80;;;;;;5073060;28;20026;-67
2024/01/22 09:59:19;;;;;;;;;;;21.20;44.80;;;;;;5079695;28;20348;-68
2024/01/22 10:01:46;;;;;;;;;;;21.20;45.00;;;;;;5078804;28;20306;-68
2024/01/22 10:04:12;;;;;;;;;;;21.10;45.30;;;;;;5095633;28;19931;-68
2024/01/22 10:06:41;;;;;;;;;;;21.00;45.30;;;;;;5082271;28;19928;-67
2024/01/22 10:09:07;;;;;;;;;;;21.00;45.60;;;;;;5083509;28;19967;-67
2024/01/22 10:11:35;;;;;;;;;;;21.00;45.50;;;;;;5081130;28;20336;-67
2024/01/22 10:14:01;;;;;;;;;;;21.00;45.90;;;;;;5082013;28;19928;-69
2024/01/22 10:16:28;;;;;;;;;;;21.00;45.60;;;;;;5071934;28;20298;-68
2024/01/22 10:22:00;;;;;;;;;;;21.10;45.80;;;;;;5086588;27;19916;-71
2024/01/22 10:24:26;;;;;;;;;;;21.10;46.00;;;;;;5104318;28;20006;-69
2024/01/22 10:26:52;;;;;;;;;;;21.10;46.10;;;;;;5068067;28;20468;-69
2024/01/22 10:29:19;;;;;;;;;;;21.10;45.70;;;;;;5103795;28;20472;-69
2024/01/22 10:34:50;;;;;;;;;;;21.10;45.90;;;;;;5090987;27;19916;-69
2024/01/22 10:37:17;;;;;;;;;;;21.20;46.10;;;;;;5106140;27;19924;-70
2024/01/22 10:39:43;;;;;;;;;;;21.20;45.80;;;;;;5081344;28;20489;-67
2024/01/22 10:42:10;;;;;;;;;;;21.20;45.70;;;;;;5079073;28;19928;-67
2024/01/22 10:44:39;;;;;;;;;;;21.20;45.70;;;;;;5075914;28;19985;-68
2024/01/22 10:47:05;;;;;;;;;;;21.20;45.70;;;;;;5078245;28;20018;-68
2024/01/22 10:49:34;;;;;;;;;;;21.20;45.70;;;;;;5079308;28;20023;-69
2024/01/22 10:52:01;;;;;;;;;;;21.20;46.50;;;;;;5078870;28;20518;-69
2024/01/22 10:54:29;;;;;;;;;;;21.30;45.70;;;;;;5079304;28;20023;-68
2024/01/22 10:57:01;;;;;;;;;;;21.30;45.70;;;;;;5106469;27;19927;-68
2024/01/22 10:59:28;;;;;;;;;;;21.30;45.60;;;;;;5077205;28;19925;-67
2024/01/22 11:01:57;;;;;;;;;;;21.30;45.50;;;;;;5075701;28;20055;-67
2024/01/22 11:04:25;;;;;;;;;;;21.30;45.50;;;;;;5074262;28;20011;-69
2024/01/22 11:06:53;;;;;;;;;;;21.40;45.50;;;;;;5082627;28;19928;-69
2024/01/22 11:09:19;;;;;;;;;;;21.50;45.40;;;;;;5072963;28;20384;-68
2024/01/22 11:11:46;;;;;;;;;;;21.50;45.30;;;;;;5078478;28;19928;-70
2024/01/22 11:14:12;;;;;;;;;;;21.60;45.40;;;;;;5093626;28;19929;-69
2024/01/22 11:16:38;;;;;;;;;;;21.60;45.20;;;;;;5073601;28;19931;-72
2024/01/22 11:19:07;;;;;;;;;;;21.60;45.20;;;;;;5070675;28;19921;-71
2024/01/22 11:21:35;;;;;;;;;;;21.60;45.10;;;;;;5073946;28;19966;-69
2024/01/22 11:29:34;;;;;;;;;;;21.60;45.00;;;;;;5092678;27;20265;-68
2024/01/22 11:32:20;;;;;;;;;;;21.50;45.10;;;;;;5092614;28;19924;-68
2024/01/22 11:34:46;;;;;;;;;;;21.40;45.20;;;;;;5092706;28;19928;-69
2024/01/22 11:37:11;;;;;;;;;;;21.30;45.20;;;;;;5093299;28;19931;-69
2024/01/22 11:42:25;;;;;;;;;;;21.10;45.50;;;;;;5092967;27;19917;-68
2024/01/22 11:44:51;;;;;;;;;;;21.10;45.60;;;;;;5118483;27;20393;-68
2024/01/22 11:47:18;;;;;;;;;;;21.00;45.60;;;;;;5122949;27;20298;-70
2024/01/22 11:49:43;;;;;;;;;;;21.00;45.60;;;;;;5091731;28;20620;-68
2024/01/22 11:52:13;;;;;;;;;;;21.10;45.60;;;;;;5077585;28;19928;-66
2024/01/22 11:54:56;;;;;;;;;;;21.10;45.60;;;;;;5081523;28;19928;-67
2024/01/22 11:57:22;;;;;;;;;;;21.10;45.50;;;;;;5082816;28;19926;-70
2024/01/22 12:00:05;;;;;;;;;;;21.20;45.30;;;;;;5082866;28;19927;-69
2024/01/22 12:02:32;;;;;;;;;;;21.20;45.20;;;;;;5087805;28;20028;-69
2024/01/22 12:04:59;;;;;;;;;;;21.30;45.10;;;;;;5089634;28;19924;-68
2024/01/22 12:07:32;;;;;;;;;;;21.30;45.00;;;;;;5087731;28;19924;-66
2024/01/22 12:09:58;;;;;;;;;;;21.40;44.90;;;;;;5094980;28;20395;-67
2024/01/22 12:12:24;;;;;;;;;;;21.40;44.90;;;;;;5087742;28;19924;-67
2024/01/22 12:14:57;;;;;;;;;;;21.50;44.80;;;;;;5087714;28;19927;-67
2024/01/22 12:17:23;;;;;;;;;;;21.50;44.60;;;;;;5089050;28;19920;-67
2024/01/22 12:19:53;;;;;;;;;;;21.60;44.60;;;;;;5094060;28;19931;-66
2024/01/22 12:22:20;;;;;;;;;;;21.50;44.30;;;;;;5100407;28;19928;-67
2024/01/22 12:25:00;;;;;;;;;;;21.40;44.40;;;;;;5090191;28;19920;-67
2024/01/22 12:27:29;;;;;;;;;;;21.40;44.40;;;;;;5092072;28;19920;-67
2024/01/22 12:29:59;;;;;;;;;;;21.40;44.40;;;;;;5094394;28;19920;-67
2024/01/22 12:32:24;;;;;;;;;;;21.50;44.30;;;;;;5095571;28;19924;-66
2024/01/22 12:34:57;;;;;;;;;;;21.50;44.10;;;;;;5093623;28;20407;-65
2024/01/22 12:37:28;;;;;;;;;;;21.50;44.00;;;;;;5093652;28;19920;-67
2024/01/22 12:40:03;;;;;;;;;;;21.60;44.00;;;;;;5094299;28;19920;-66
2024/01/22 12:42:29;;;;;;;;;;;21.50;43.90;;;;;;5088966;28;19928;-66
2024/01/22 12:44:58;;;;;;;;;;;21.50;43.90;;;;;;5076841;28;20108;-69
2024/01/22 12:47:25;;;;;;;;;;;21.50;43.90;;;;;;5124986;27;19920;-68
2024/01/22 12:49:52;;;;;;;;;;;21.40;43.80;;;;;;5091140;28;20028;-67
2024/01/22 12:52:18;;;;;;;;;;;21.40;43.90;;;;;;5086635;28;19956;-65
2024/01/22 12:54:43;;;;;;;;;;;21.50;43.90;;;;;;5077391;28;20039;-64
2024/01/22 12:57:09;;;;;;;;;;;21.50;43.80;;;;;;5073893;28;20315;-66
2024/01/22 12:59:35;;;;;;;;;;;21.60;43.70;;;;;;5078080;28;19920;-64
2024/01/22 13:02:00;;;;;;;;;;;21.50;43.60;;;;;;5078893;28;20340;-66
2024/01/22 13:04:26;;;;;;;;;;;21.60;43.50;;;;;;5079156;28;19928;-66
2024/01/22 13:06:51;;;;;;;;;;;21.60;43.60;;;;;;5077259;28;19928;-67
2024/01/22 13:09:21;;;;;;;;;;;21.60;43.60;;;;;;5077979;28;19924;-67
2024/01/22 13:11:48;;;;;;;;;;;21.50;43.50;;;;;;5084167;28;20283;-68
2024/01/22 13:14:13;;;;;;;;;;;21.50;43.60;;;;;;5074891;28;19959;-68
2024/01/22 13:16:39;;;;;;;;;;;21.50;43.60;;;;;;5078192;28;19978;-67
2024/01/22 13:19:07;;;;;;;;;;;21.60;43.70;;;;;;5080778;28;20314;-66
2024/01/22 13:21:33;;;;;;;;;;;21.50;43.60;;;;;;5074321;28;19928;-66
2024/01/22 13:23:58;;;;;;;;;;;21.50;43.60;;;;;;5076310;28;19982;-69
2024/01/22 13:26:24;;;;;;;;;;;21.50;43.60;;;;;;5077873;28;19924;-69
2024/01/22 13:28:49;;;;;;;;;;;21.50;43.70;;;;;;5078951;28;20348;-67
2024/01/22 13:31:15;;;;;;;;;;;21.50;43.80;;;;;;5082379;28;19928;-66
2024/01/22 13:33:41;;;;;;;;;;;21.50;43.90;;;;;;5081301;28;20428;-68
2024/01/22 13:36:09;;;;;;;;;;;21.40;43.90;;;;;;5077086;28;19927;-67
2024/01/22 13:38:36;;;;;;;;;;;21.40;43.90;;;;;;5073890;28;20268;-70
2024/01/22 13:41:04;;;;;;;;;;;21.40;43.90;;;;;;5069733;28;19924;-70
2024/01/22 13:43:30;;;;;;;;;;;21.50;43.90;;;;;;5073853;28;19931;-70
2024/01/22 13:45:55;;;;;;;;;;;21.50;43.80;;;;;;5075371;28;19947;-70
2024/01/22 13:48:21;;;;;;;;;;;21.50;43.70;;;;;;5073066;28;19928;-71
2024/01/22 13:50:48;;;;;;;;;;;21.60;43.80;;;;;;5067109;28;19931;-70
2024/01/22 13:53:16;;;;;;;;;;;21.60;43.60;;;;;;5068071;28;19924;-69
2024/01/22 13:55:41;;;;;;;;;;;21.60;43.60;;;;;;5070111;28;20543;-69
2024/01/22 13:58:07;;;;;;;;;;;21.60;43.50;;;;;;5056777;28;19920;-69
2024/01/22 14:00:33;;;;;;;;;;;21.60;43.50;;;;;;5065390;28;19924;-69
2024/01/22 14:02:58;;;;;;;;;;;21.60;43.60;;;;;;5044405;28;19946;-68
2024/01/22 14:05:24;;;;;;;;;;;21.50;43.60;;;;;;5079430;28;20271;-68
2024/01/22 14:07:49;;;;;;;;;;;21.50;43.70;;;;;;5077837;28;19927;-69
2024/01/22 14:10:15;;;;;;;;;;;21.50;43.40;;;;;;5074046;28;19927;-69
2024/01/22 14:12:40;;;;;;;;;;;21.30;43.60;;;;;;5078726;28;20681;-70
2024/01/22 14:15:07;;;;;;;;;;;21.30;43.80;;;;;;5100028;27;20384;-70
2024/01/22 14:17:33;;;;;;;;;;;21.40;43.80;;;;;;5076507;28;19920;-70
2024/01/22 14:19:59;;;;;;;;;;;21.40;43.60;;;;;;5077092;28;19931;-70
2024/01/22 14:22:25;;;;;;;;;;;21.40;43.40;;;;;;5076832;28;19920;-70
2024/01/22 14:24:52;;;;;;;;;;;21.40;43.30;;;;;;5085106;28;20386;-70